sensor_id;sensor_type;location;lat;lon;timestamp;P1;durP1;ratioP1;P2;durP2;ratioP2
64678;SDS011;51094;53.864;27.676;2023-06-22T00:02:24;5.00;;;4.90;;
64678;SDS011;51094;53.864;27.676;2023-06-22T00:07:23;5.20;;;5.10;;
64678;SDS011;51094;53.864;27.676;2023-06-22T00:09:51;5.78;;;5.68;;
64678;SDS011;51094;53.864;27.676;2023-06-22T00:12:20;5.20;;;5.10;;
64678;SDS011;51094;53.864;27.676;2023-06-22T00:14:51;5.30;;;5.20;;
64678;SDS011;51094;53.864;27.676;2023-06-22T00:17:19;5.22;;;5.13;;
64678;SDS011;51094;53.864;27.676;2023-06-22T00:19:50;5.95;;;5.85;;
64678;SDS011;51094;53.864;27.676;2023-06-22T00:22:22;5.50;;;5.40;;
64678;SDS011;51094;53.864;27.676;2023-06-22T00:24:56;5.10;;;5.00;;
64678;SDS011;51094;53.864;27.676;2023-06-22T00:29:54;4.95;;;4.85;;
64678;SDS011;51094;53.864;27.676;2023-06-22T00:32:21;6.55;;;6.35;;
64678;SDS011;51094;53.864;27.676;2023-06-22T00:34:48;6.63;;;6.43;;
64678;SDS011;51094;53.864;27.676;2023-06-22T00:37:17;6.72;;;6.53;;
64678;SDS011;51094;53.864;27.676;2023-06-22T00:39:44;6.03;;;5.82;;
64678;SDS011;51094;53.864;27.676;2023-06-22T00:42:11;6.80;;;6.60;;
64678;SDS011;51094;53.864;27.676;2023-06-22T00:44:38;6.68;;;6.47;;
64678;SDS011;51094;53.864;27.676;2023-06-22T00:47:06;5.50;;;5.30;;
64678;SDS011;51094;53.864;27.676;2023-06-22T00:49:34;6.70;;;6.50;;
64678;SDS011;51094;53.864;27.676;2023-06-22T00:52:02;5.80;;;5.60;;
64678;SDS011;51094;53.864;27.676;2023-06-22T00:54:30;6.10;;;5.90;;
64678;SDS011;51094;53.864;27.676;2023-06-22T00:56:59;6.03;;;5.82;;
64678;SDS011;51094;53.864;27.676;2023-06-22T00:59:44;6.40;;;6.20;;
64678;SDS011;51094;53.864;27.676;2023-06-22T01:02:12;6.22;;;6.03;;
64678;SDS011;51094;53.864;27.676;2023-06-22T01:04:39;6.13;;;5.93;;
64678;SDS011;51094;53.864;27.676;2023-06-22T01:09:35;5.72;;;5.63;;
64678;SDS011;51094;53.864;27.676;2023-06-22T01:12:11;5.65;;;5.55;;
64678;SDS011;51094;53.864;27.676;2023-06-22T01:14:43;5.88;;;5.68;;
64678;SDS011;51094;53.864;27.676;2023-06-22T01:17:19;5.72;;;5.53;;
64678;SDS011;51094;53.864;27.676;2023-06-22T01:19:48;6.05;;;5.85;;
64678;SDS011;51094;53.864;27.676;2023-06-22T01:22:27;5.18;;;5.07;;
64678;SDS011;51094;53.864;27.676;2023-06-22T01:25:11;5.88;;;5.78;;
64678;SDS011;51094;53.864;27.676;2023-06-22T01:30:23;5.47;;;5.38;;
64678;SDS011;51094;53.864;27.676;2023-06-22T01:32:56;5.55;;;5.35;;
64678;SDS011;51094;53.864;27.676;2023-06-22T01:35:24;5.85;;;5.65;;
64678;SDS011;51094;53.864;27.676;2023-06-22T01:37:54;5.55;;;5.45;;
64678;SDS011;51094;53.864;27.676;2023-06-22T01:40:22;6.15;;;6.00;;
64678;SDS011;51094;53.864;27.676;2023-06-22T01:42:51;5.63;;;5.53;;
64678;SDS011;51094;53.864;27.676;2023-06-22T01:45:18;5.43;;;5.32;;
64678;SDS011;51094;53.864;27.676;2023-06-22T01:47:47;5.90;;;5.80;;
64678;SDS011;51094;53.864;27.676;2023-06-22T01:50:15;5.95;;;5.85;;
64678;SDS011;51094;53.864;27.676;2023-06-22T01:52:42;5.45;;;5.35;;
64678;SDS011;51094;53.864;27.676;2023-06-22T01:55:10;5.38;;;5.28;;
64678;SDS011;51094;53.864;27.676;2023-06-22T01:57:39;5.22;;;5.13;;
64678;SDS011;51094;53.864;27.676;2023-06-22T02:00:11;4.80;;;4.70;;
64678;SDS011;51094;53.864;27.676;2023-06-22T02:02:51;5.97;;;5.88;;
64678;SDS011;51094;53.864;27.676;2023-06-22T02:05:24;5.22;;;5.13;;
64678;SDS011;51094;53.864;27.676;2023-06-22T02:08:10;5.88;;;5.78;;
64678;SDS011;51094;53.864;27.676;2023-06-22T02:10:45;5.60;;;5.50;;
64678;SDS011;51094;53.864;27.676;2023-06-22T02:13:14;5.33;;;5.23;;
64678;SDS011;51094;53.864;27.676;2023-06-22T02:15:43;5.40;;;5.30;;
64678;SDS011;51094;53.864;27.676;2023-06-22T02:18:11;5.35;;;5.25;;
64678;SDS011;51094;53.864;27.676;2023-06-22T02:20:39;4.78;;;4.68;;
64678;SDS011;51094;53.864;27.676;2023-06-22T02:23:07;5.18;;;5.07;;
64678;SDS011;51094;53.864;27.676;2023-06-22T02:25:36;5.23;;;5.13;;
64678;SDS011;51094;53.864;27.676;2023-06-22T02:28:04;5.95;;;5.85;;
64678;SDS011;51094;53.864;27.676;2023-06-22T02:30:31;5.70;;;5.60;;
64678;SDS011;51094;53.864;27.676;2023-06-22T02:32:59;5.70;;;5.60;;
64678;SDS011;51094;53.864;27.676;2023-06-22T02:35:27;5.78;;;5.68;;
64678;SDS011;51094;53.864;27.676;2023-06-22T02:38:00;5.15;;;5.05;;
64678;SDS011;51094;53.864;27.676;2023-06-22T02:40:29;5.55;;;5.45;;
64678;SDS011;51094;53.864;27.676;2023-06-22T02:42:58;6.10;;;6.00;;
64678;SDS011;51094;53.864;27.676;2023-06-22T02:45:29;6.03;;;5.93;;
64678;SDS011;51094;53.864;27.676;2023-06-22T02:47:57;7.00;;;6.82;;
64678;SDS011;51094;53.864;27.676;2023-06-22T02:54:12;6.88;;;6.68;;
64678;SDS011;51094;53.864;27.676;2023-06-22T02:56:40;6.30;;;6.20;;
64678;SDS011;51094;53.864;27.676;2023-06-22T02:59:07;7.78;;;7.53;;
64678;SDS011;51094;53.864;27.676;2023-06-22T03:01:37;7.57;;;7.28;;
64678;SDS011;51094;53.864;27.676;2023-06-22T03:04:24;7.63;;;7.32;;
64678;SDS011;51094;53.864;27.676;2023-06-22T03:06:51;6.95;;;6.75;;
64678;SDS011;51094;53.864;27.676;2023-06-22T03:09:19;7.70;;;7.40;;
64678;SDS011;51094;53.864;27.676;2023-06-22T03:11:47;7.28;;;7.07;;
64678;SDS011;51094;53.864;27.676;2023-06-22T03:14:14;7.65;;;7.35;;
64678;SDS011;51094;53.864;27.676;2023-06-22T03:16:42;7.57;;;7.38;;
64678;SDS011;51094;53.864;27.676;2023-06-22T03:19:09;8.30;;;8.07;;
64678;SDS011;51094;53.864;27.676;2023-06-22T03:21:36;8.30;;;8.00;;
64678;SDS011;51094;53.864;27.676;2023-06-22T03:24:05;7.70;;;7.50;;
64678;SDS011;51094;53.864;27.676;2023-06-22T03:26:34;7.68;;;7.45;;
64678;SDS011;51094;53.864;27.676;2023-06-22T03:29:01;7.88;;;7.60;;
64678;SDS011;51094;53.864;27.676;2023-06-22T03:31:29;8.85;;;8.45;;
64678;SDS011;51094;53.864;27.676;2023-06-22T03:33:56;8.27;;;7.97;;
64678;SDS011;51094;53.864;27.676;2023-06-22T03:36:23;8.82;;;8.52;;
64678;SDS011;51094;53.864;27.676;2023-06-22T03:38:51;8.80;;;8.50;;
64678;SDS011;51094;53.864;27.676;2023-06-22T03:41:18;9.02;;;8.63;;
64678;SDS011;51094;53.864;27.676;2023-06-22T03:43:46;7.88;;;7.68;;
64678;SDS011;51094;53.864;27.676;2023-06-22T03:46:14;8.65;;;8.35;;
64678;SDS011;51094;53.864;27.676;2023-06-22T03:48:42;8.98;;;8.68;;
64678;SDS011;51094;53.864;27.676;2023-06-22T03:51:09;7.97;;;7.68;;
64678;SDS011;51094;53.864;27.676;2023-06-22T03:53:36;8.43;;;8.15;;
64678;SDS011;51094;53.864;27.676;2023-06-22T03:56:03;7.88;;;7.57;;
64678;SDS011;51094;53.864;27.676;2023-06-22T03:58:30;7.70;;;7.45;;
64678;SDS011;51094;53.864;27.676;2023-06-22T04:00:59;7.97;;;7.68;;
64678;SDS011;51094;53.864;27.676;2023-06-22T04:03:26;8.32;;;8.02;;
64678;SDS011;51094;53.864;27.676;2023-06-22T04:05:53;8.20;;;7.90;;
64678;SDS011;51094;53.864;27.676;2023-06-22T04:08:20;8.25;;;8.02;;
64678;SDS011;51094;53.864;27.676;2023-06-22T04:10:47;8.10;;;7.90;;
64678;SDS011;51094;53.864;27.676;2023-06-22T04:13:14;8.20;;;8.00;;
64678;SDS011;51094;53.864;27.676;2023-06-22T04:15:41;7.70;;;7.50;;
64678;SDS011;51094;53.864;27.676;2023-06-22T04:18:08;8.23;;;8.02;;
64678;SDS011;51094;53.864;27.676;2023-06-22T04:20:35;7.80;;;7.70;;
64678;SDS011;51094;53.864;27.676;2023-06-22T04:23:03;8.02;;;7.82;;
64678;SDS011;51094;53.864;27.676;2023-06-22T04:25:30;8.25;;;8.05;;
64678;SDS011;51094;53.864;27.676;2023-06-22T04:27:57;8.15;;;7.95;;
64678;SDS011;51094;53.864;27.676;2023-06-22T04:30:24;7.68;;;7.57;;
64678;SDS011;51094;53.864;27.676;2023-06-22T04:32:51;8.23;;;8.02;;
64678;SDS011;51094;53.864;27.676;2023-06-22T04:35:24;7.80;;;7.60;;
64678;SDS011;51094;53.864;27.676;2023-06-22T04:37:52;7.45;;;7.35;;
64678;SDS011;51094;53.864;27.676;2023-06-22T04:40:22;8.50;;;8.40;;
64678;SDS011;51094;53.864;27.676;2023-06-22T04:42:49;8.13;;;8.02;;
64678;SDS011;51094;53.864;27.676;2023-06-22T04:45:20;8.57;;;8.40;;
64678;SDS011;51094;53.864;27.676;2023-06-22T04:47:48;7.60;;;7.50;;
64678;SDS011;51094;53.864;27.676;2023-06-22T04:50:16;8.05;;;7.95;;
64678;SDS011;51094;53.864;27.676;2023-06-22T04:52:43;7.97;;;7.88;;
64678;SDS011;51094;53.864;27.676;2023-06-22T04:55:12;8.38;;;8.27;;
64678;SDS011;51094;53.864;27.676;2023-06-22T04:57:41;8.35;;;8.25;;
64678;SDS011;51094;53.864;27.676;2023-06-22T05:00:15;7.97;;;7.78;;
64678;SDS011;51094;53.864;27.676;2023-06-22T05:02:49;7.82;;;7.63;;
64678;SDS011;51094;53.864;27.676;2023-06-22T05:05:16;7.63;;;7.53;;
64678;SDS011;51094;53.864;27.676;2023-06-22T05:07:50;8.43;;;8.32;;
64678;SDS011;51094;53.864;27.676;2023-06-22T05:10:19;7.47;;;7.30;;
64678;SDS011;51094;53.864;27.676;2023-06-22T05:12:46;6.65;;;6.55;;
64678;SDS011;51094;53.864;27.676;2023-06-22T05:15:13;6.68;;;6.57;;
64678;SDS011;51094;53.864;27.676;2023-06-22T05:17:41;6.80;;;6.70;;
64678;SDS011;51094;53.864;27.676;2023-06-22T05:20:12;6.90;;;6.80;;
64678;SDS011;51094;53.864;27.676;2023-06-22T05:22:39;7.30;;;7.15;;
64678;SDS011;51094;53.864;27.676;2023-06-22T05:25:10;6.63;;;6.53;;
64678;SDS011;51094;53.864;27.676;2023-06-22T05:27:37;8.05;;;7.95;;
64678;SDS011;51094;53.864;27.676;2023-06-22T05:30:06;6.65;;;6.55;;
64678;SDS011;51094;53.864;27.676;2023-06-22T05:32:34;7.60;;;7.45;;
64678;SDS011;51094;53.864;27.676;2023-06-22T05:35:03;6.65;;;6.55;;
64678;SDS011;51094;53.864;27.676;2023-06-22T05:37:30;6.30;;;6.20;;
64678;SDS011;51094;53.864;27.676;2023-06-22T05:39:57;6.55;;;6.45;;
64678;SDS011;51094;53.864;27.676;2023-06-22T05:42:24;6.80;;;6.70;;
64678;SDS011;51094;53.864;27.676;2023-06-22T05:44:52;6.43;;;6.32;;
64678;SDS011;51094;53.864;27.676;2023-06-22T05:47:20;6.50;;;6.40;;
64678;SDS011;51094;53.864;27.676;2023-06-22T05:49:47;6.45;;;6.35;;
64678;SDS011;51094;53.864;27.676;2023-06-22T05:52:14;6.45;;;6.35;;
64678;SDS011;51094;53.864;27.676;2023-06-22T05:54:41;6.28;;;6.18;;
64678;SDS011;51094;53.864;27.676;2023-06-22T05:57:09;6.00;;;5.90;;
64678;SDS011;51094;53.864;27.676;2023-06-22T05:59:36;6.10;;;6.00;;
64678;SDS011;51094;53.864;27.676;2023-06-22T06:02:03;6.78;;;6.68;;
64678;SDS011;51094;53.864;27.676;2023-06-22T06:04:31;6.60;;;6.50;;
64678;SDS011;51094;53.864;27.676;2023-06-22T06:06:58;6.43;;;6.32;;
64678;SDS011;51094;53.864;27.676;2023-06-22T06:09:25;6.75;;;6.65;;
64678;SDS011;51094;53.864;27.676;2023-06-22T06:11:52;5.93;;;5.82;;
64678;SDS011;51094;53.864;27.676;2023-06-22T06:14:19;6.30;;;6.20;;
64678;SDS011;51094;53.864;27.676;2023-06-22T06:16:48;6.22;;;6.13;;
64678;SDS011;51094;53.864;27.676;2023-06-22T06:19:15;6.40;;;6.30;;
64678;SDS011;51094;53.864;27.676;2023-06-22T06:21:42;6.00;;;5.90;;
64678;SDS011;51094;53.864;27.676;2023-06-22T06:24:09;5.60;;;5.50;;
64678;SDS011;51094;53.864;27.676;2023-06-22T06:26:36;5.65;;;5.57;;
64678;SDS011;51094;53.864;27.676;2023-06-22T06:29:03;5.55;;;5.45;;
64678;SDS011;51094;53.864;27.676;2023-06-22T06:31:30;5.30;;;5.20;;
64678;SDS011;51094;53.864;27.676;2023-06-22T06:33:57;4.70;;;4.70;;
64678;SDS011;51094;53.864;27.676;2023-06-22T06:36:24;4.50;;;4.50;;
64678;SDS011;51094;53.864;27.676;2023-06-22T06:38:51;4.95;;;4.85;;
64678;SDS011;51094;53.864;27.676;2023-06-22T06:41:18;4.72;;;4.72;;
64678;SDS011;51094;53.864;27.676;2023-06-22T06:43:45;4.80;;;4.80;;
64678;SDS011;51094;53.864;27.676;2023-06-22T06:46:13;4.55;;;4.45;;
64678;SDS011;51094;53.864;27.676;2023-06-22T06:48:40;4.22;;;4.22;;
64678;SDS011;51094;53.864;27.676;2023-06-22T06:51:07;4.03;;;4.03;;
64678;SDS011;51094;53.864;27.676;2023-06-22T06:53:39;3.90;;;3.90;;
64678;SDS011;51094;53.864;27.676;2023-06-22T06:56:06;3.63;;;3.63;;
64678;SDS011;51094;53.864;27.676;2023-06-22T06:58:33;3.90;;;3.90;;
64678;SDS011;51094;53.864;27.676;2023-06-22T07:01:00;3.67;;;3.58;;
64678;SDS011;51094;53.864;27.676;2023-06-22T07:03:27;3.60;;;3.60;;
64678;SDS011;51094;53.864;27.676;2023-06-22T07:05:54;3.67;;;3.60;;
64678;SDS011;51094;53.864;27.676;2023-06-22T07:08:21;3.25;;;3.25;;
64678;SDS011;51094;53.864;27.676;2023-06-22T07:10:47;3.20;;;3.20;;
64678;SDS011;51094;53.864;27.676;2023-06-22T07:13:14;3.80;;;3.70;;
64678;SDS011;51094;53.864;27.676;2023-06-22T07:15:41;3.30;;;3.30;;
64678;SDS011;51094;53.864;27.676;2023-06-22T07:18:08;3.10;;;3.10;;
64678;SDS011;51094;53.864;27.676;2023-06-22T07:20:35;3.00;;;3.00;;
64678;SDS011;51094;53.864;27.676;2023-06-22T07:23:02;3.00;;;3.00;;
64678;SDS011;51094;53.864;27.676;2023-06-22T07:25:29;3.05;;;3.05;;
64678;SDS011;51094;53.864;27.676;2023-06-22T07:28:02;2.90;;;2.90;;
64678;SDS011;51094;53.864;27.676;2023-06-22T07:30:31;2.80;;;2.80;;
64678;SDS011;51094;53.864;27.676;2023-06-22T07:33:00;3.10;;;3.10;;
64678;SDS011;51094;53.864;27.676;2023-06-22T07:35:31;3.20;;;3.10;;
64678;SDS011;51094;53.864;27.676;2023-06-22T07:37:58;2.45;;;2.45;;
64678;SDS011;51094;53.864;27.676;2023-06-22T07:40:29;2.58;;;2.58;;
64678;SDS011;51094;53.864;27.676;2023-06-22T07:42:56;2.67;;;2.67;;
64678;SDS011;51094;53.864;27.676;2023-06-22T07:45:23;2.60;;;2.60;;
64678;SDS011;51094;53.864;27.676;2023-06-22T07:47:50;2.60;;;2.60;;
64678;SDS011;51094;53.864;27.676;2023-06-22T07:50:17;2.60;;;2.60;;
64678;SDS011;51094;53.864;27.676;2023-06-22T07:52:43;2.75;;;2.75;;
64678;SDS011;51094;53.864;27.676;2023-06-22T07:55:10;2.78;;;2.78;;
64678;SDS011;51094;53.864;27.676;2023-06-22T07:57:37;2.50;;;2.50;;
64678;SDS011;51094;53.864;27.676;2023-06-22T08:00:04;2.42;;;2.42;;
64678;SDS011;51094;53.864;27.676;2023-06-22T08:02:44;2.70;;;2.70;;
64678;SDS011;51094;53.864;27.676;2023-06-22T08:05:14;2.40;;;2.40;;
64678;SDS011;51094;53.864;27.676;2023-06-22T08:07:44;2.60;;;2.60;;
64678;SDS011;51094;53.864;27.676;2023-06-22T08:12:41;3.42;;;3.42;;
64678;SDS011;51094;53.864;27.676;2023-06-22T08:15:08;2.60;;;2.60;;
64678;SDS011;51094;53.864;27.676;2023-06-22T08:17:36;2.65;;;2.65;;
64678;SDS011;51094;53.864;27.676;2023-06-22T08:20:05;2.47;;;2.47;;
64678;SDS011;51094;53.864;27.676;2023-06-22T08:22:36;2.38;;;2.38;;
64678;SDS011;51094;53.864;27.676;2023-06-22T08:25:03;2.40;;;2.40;;
64678;SDS011;51094;53.864;27.676;2023-06-22T08:27:31;2.50;;;2.50;;
64678;SDS011;51094;53.864;27.676;2023-06-22T08:29:59;2.50;;;2.50;;
64678;SDS011;51094;53.864;27.676;2023-06-22T08:32:27;2.80;;;2.80;;
64678;SDS011;51094;53.864;27.676;2023-06-22T08:34:55;3.20;;;3.20;;
64678;SDS011;51094;53.864;27.676;2023-06-22T08:37:23;2.80;;;2.70;;
64678;SDS011;51094;53.864;27.676;2023-06-22T08:39:58;4.68;;;4.43;;
64678;SDS011;51094;53.864;27.676;2023-06-22T08:42:26;3.00;;;3.00;;
64678;SDS011;51094;53.864;27.676;2023-06-22T08:44:53;2.63;;;2.60;;
64678;SDS011;51094;53.864;27.676;2023-06-22T08:47:20;2.55;;;2.55;;
64678;SDS011;51094;53.864;27.676;2023-06-22T08:49:48;2.40;;;2.40;;
64678;SDS011;51094;53.864;27.676;2023-06-22T08:52:16;2.30;;;2.30;;
64678;SDS011;51094;53.864;27.676;2023-06-22T08:54:44;2.50;;;2.50;;
64678;SDS011;51094;53.864;27.676;2023-06-22T08:57:10;2.47;;;2.47;;
64678;SDS011;51094;53.864;27.676;2023-06-22T08:59:37;2.35;;;2.35;;
64678;SDS011;51094;53.864;27.676;2023-06-22T09:02:05;2.40;;;2.40;;
64678;SDS011;51094;53.864;27.676;2023-06-22T09:04:32;2.50;;;2.45;;
64678;SDS011;51094;53.864;27.676;2023-06-22T09:07:02;2.40;;;2.40;;
64678;SDS011;51094;53.864;27.676;2023-06-22T09:09:29;2.38;;;2.38;;
64678;SDS011;51094;53.864;27.676;2023-06-22T09:11:56;2.03;;;2.03;;
64678;SDS011;51094;53.864;27.676;2023-06-22T09:14:23;2.30;;;2.30;;
64678;SDS011;51094;53.864;27.676;2023-06-22T09:16:51;2.40;;;2.40;;
64678;SDS011;51094;53.864;27.676;2023-06-22T09:19:18;2.03;;;2.03;;
64678;SDS011;51094;53.864;27.676;2023-06-22T09:21:45;2.20;;;2.20;;
64678;SDS011;51094;53.864;27.676;2023-06-22T09:24:12;2.30;;;2.30;;
64678;SDS011;51094;53.864;27.676;2023-06-22T09:26:39;2.47;;;2.40;;
64678;SDS011;51094;53.864;27.676;2023-06-22T09:29:06;3.40;;;3.30;;
64678;SDS011;51094;53.864;27.676;2023-06-22T09:31:33;3.50;;;3.50;;
64678;SDS011;51094;53.864;27.676;2023-06-22T09:34:00;2.30;;;2.30;;
64678;SDS011;51094;53.864;27.676;2023-06-22T09:36:27;2.13;;;2.13;;
64678;SDS011;51094;53.864;27.676;2023-06-22T09:38:54;2.15;;;2.15;;
64678;SDS011;51094;53.864;27.676;2023-06-22T09:41:25;2.15;;;2.15;;
64678;SDS011;51094;53.864;27.676;2023-06-22T09:43:52;2.38;;;2.38;;
64678;SDS011;51094;53.864;27.676;2023-06-22T09:46:22;2.47;;;2.47;;
64678;SDS011;51094;53.864;27.676;2023-06-22T09:48:52;2.15;;;2.15;;
64678;SDS011;51094;53.864;27.676;2023-06-22T09:51:19;2.30;;;2.30;;
64678;SDS011;51094;53.864;27.676;2023-06-22T09:53:48;2.28;;;2.28;;
64678;SDS011;51094;53.864;27.676;2023-06-22T09:56:16;2.60;;;2.60;;
64678;SDS011;51094;53.864;27.676;2023-06-22T09:58:43;2.30;;;2.30;;
64678;SDS011;51094;53.864;27.676;2023-06-22T10:01:11;2.50;;;2.50;;
64678;SDS011;51094;53.864;27.676;2023-06-22T10:03:38;2.30;;;2.30;;
64678;SDS011;51094;53.864;27.676;2023-06-22T10:06:05;2.38;;;2.38;;
64678;SDS011;51094;53.864;27.676;2023-06-22T10:08:32;2.40;;;2.40;;
64678;SDS011;51094;53.864;27.676;2023-06-22T10:11:00;2.45;;;2.45;;
64678;SDS011;51094;53.864;27.676;2023-06-22T10:13:26;2.40;;;2.40;;
64678;SDS011;51094;53.864;27.676;2023-06-22T10:15:54;2.40;;;2.40;;
64678;SDS011;51094;53.864;27.676;2023-06-22T10:18:21;2.42;;;2.42;;
64678;SDS011;51094;53.864;27.676;2023-06-22T10:20:48;2.60;;;2.60;;
64678;SDS011;51094;53.864;27.676;2023-06-22T10:23:19;2.28;;;2.28;;
64678;SDS011;51094;53.864;27.676;2023-06-22T10:25:47;2.20;;;2.20;;
64678;SDS011;51094;53.864;27.676;2023-06-22T10:28:14;2.83;;;2.83;;
64678;SDS011;51094;53.864;27.676;2023-06-22T10:30:41;3.70;;;3.60;;
64678;SDS011;51094;53.864;27.676;2023-06-22T10:33:09;2.90;;;2.80;;
64678;SDS011;51094;53.864;27.676;2023-06-22T10:35:37;3.53;;;3.42;;
64678;SDS011;51094;53.864;27.676;2023-06-22T10:38:05;2.65;;;2.65;;
64678;SDS011;51094;53.864;27.676;2023-06-22T10:40:33;3.40;;;3.40;;
64678;SDS011;51094;53.864;27.676;2023-06-22T10:43:00;3.55;;;3.50;;
64678;SDS011;51094;53.864;27.676;2023-06-22T10:45:27;3.63;;;3.53;;
64678;SDS011;51094;53.864;27.676;2023-06-22T10:47:55;4.60;;;4.50;;
64678;SDS011;51094;53.864;27.676;2023-06-22T10:50:22;2.42;;;2.42;;
64678;SDS011;51094;53.864;27.676;2023-06-22T10:55:18;2.78;;;2.75;;
64678;SDS011;51094;53.864;27.676;2023-06-22T10:57:45;2.72;;;2.63;;
64678;SDS011;51094;53.864;27.676;2023-06-22T11:00:14;3.00;;;2.90;;
64678;SDS011;51094;53.864;27.676;2023-06-22T11:02:42;1.95;;;1.95;;
64678;SDS011;51094;53.864;27.676;2023-06-22T11:05:10;2.20;;;2.20;;
64678;SDS011;51094;53.864;27.676;2023-06-22T11:07:40;3.13;;;3.03;;
64678;SDS011;51094;53.864;27.676;2023-06-22T11:10:10;4.60;;;4.50;;
64678;SDS011;51094;53.864;27.676;2023-06-22T11:12:37;2.58;;;2.58;;
64678;SDS011;51094;53.864;27.676;2023-06-22T11:15:04;3.00;;;2.90;;
64678;SDS011;51094;53.864;27.676;2023-06-22T11:17:32;2.10;;;2.10;;
64678;SDS011;51094;53.864;27.676;2023-06-22T11:19:59;2.53;;;2.50;;
64678;SDS011;51094;53.864;27.676;2023-06-22T11:22:26;2.00;;;2.00;;
64678;SDS011;51094;53.864;27.676;2023-06-22T11:24:53;2.50;;;2.50;;
64678;SDS011;51094;53.864;27.676;2023-06-22T11:27:20;1.90;;;1.90;;
64678;SDS011;51094;53.864;27.676;2023-06-22T11:29:47;2.55;;;2.50;;
64678;SDS011;51094;53.864;27.676;2023-06-22T11:32:14;1.80;;;1.80;;
64678;SDS011;51094;53.864;27.676;2023-06-22T11:34:41;1.80;;;1.80;;
64678;SDS011;51094;53.864;27.676;2023-06-22T11:37:08;2.10;;;2.10;;
64678;SDS011;51094;53.864;27.676;2023-06-22T11:39:35;1.73;;;1.73;;
64678;SDS011;51094;53.864;27.676;2023-06-22T11:42:11;2.10;;;2.10;;
64678;SDS011;51094;53.864;27.676;2023-06-22T11:44:38;2.67;;;2.67;;
64678;SDS011;51094;53.864;27.676;2023-06-22T11:47:05;2.17;;;2.17;;
64678;SDS011;51094;53.864;27.676;2023-06-22T11:49:32;2.00;;;2.00;;
64678;SDS011;51094;53.864;27.676;2023-06-22T11:51:59;2.17;;;2.17;;
64678;SDS011;51094;53.864;27.676;2023-06-22T11:54:26;3.80;;;3.70;;
64678;SDS011;51094;53.864;27.676;2023-06-22T11:56:52;2.90;;;2.70;;
64678;SDS011;51094;53.864;27.676;2023-06-22T11:59:20;3.40;;;3.10;;
64678;SDS011;51094;53.864;27.676;2023-06-22T12:01:48;2.90;;;2.80;;
64678;SDS011;51094;53.864;27.676;2023-06-22T12:04:17;2.72;;;2.63;;
64678;SDS011;51094;53.864;27.676;2023-06-22T12:06:44;2.70;;;2.60;;
64678;SDS011;51094;53.864;27.676;2023-06-22T12:09:11;2.50;;;2.50;;
64678;SDS011;51094;53.864;27.676;2023-06-22T12:11:40;2.67;;;2.58;;
64678;SDS011;51094;53.864;27.676;2023-06-22T12:14:07;2.50;;;2.40;;
64678;SDS011;51094;53.864;27.676;2023-06-22T12:16:34;2.42;;;2.42;;
64678;SDS011;51094;53.864;27.676;2023-06-22T12:19:01;2.70;;;2.70;;
64678;SDS011;51094;53.864;27.676;2023-06-22T12:21:28;2.50;;;2.40;;
64678;SDS011;51094;53.864;27.676;2023-06-22T12:23:55;2.70;;;2.60;;
64678;SDS011;51094;53.864;27.676;2023-06-22T12:26:22;2.90;;;2.88;;
64678;SDS011;51094;53.864;27.676;2023-06-22T12:28:49;2.95;;;2.88;;
64678;SDS011;51094;53.864;27.676;2023-06-22T12:31:16;3.00;;;3.00;;
64678;SDS011;51094;53.864;27.676;2023-06-22T12:33:44;3.10;;;3.10;;
64678;SDS011;51094;53.864;27.676;2023-06-22T12:36:10;3.35;;;3.25;;
64678;SDS011;51094;53.864;27.676;2023-06-22T12:38:37;3.28;;;3.28;;
64678;SDS011;51094;53.864;27.676;2023-06-22T12:41:04;3.97;;;3.97;;
64678;SDS011;51094;53.864;27.676;2023-06-22T12:43:31;3.92;;;3.92;;
64678;SDS011;51094;53.864;27.676;2023-06-22T12:45:58;3.80;;;3.80;;
64678;SDS011;51094;53.864;27.676;2023-06-22T12:48:28;3.70;;;3.70;;
64678;SDS011;51094;53.864;27.676;2023-06-22T12:50:55;3.60;;;3.60;;
64678;SDS011;51094;53.864;27.676;2023-06-22T12:53:22;3.08;;;3.08;;
64678;SDS011;51094;53.864;27.676;2023-06-22T12:55:50;3.75;;;3.67;;
64678;SDS011;51094;53.864;27.676;2023-06-22T12:58:17;6.10;;;6.00;;
64678;SDS011;51094;53.864;27.676;2023-06-22T13:00:44;3.22;;;3.22;;
64678;SDS011;51094;53.864;27.676;2023-06-22T13:03:11;3.20;;;3.20;;
64678;SDS011;51094;53.864;27.676;2023-06-22T13:05:38;3.20;;;3.20;;
64678;SDS011;51094;53.864;27.676;2023-06-22T13:08:05;3.25;;;3.25;;
64678;SDS011;51094;53.864;27.676;2023-06-22T13:10:32;3.17;;;3.17;;
64678;SDS011;51094;53.864;27.676;2023-06-22T13:12:59;3.10;;;3.10;;
64678;SDS011;51094;53.864;27.676;2023-06-22T13:15:28;3.08;;;3.08;;
64678;SDS011;51094;53.864;27.676;2023-06-22T13:17:55;3.10;;;3.10;;
64678;SDS011;51094;53.864;27.676;2023-06-22T13:20:23;2.97;;;2.97;;
64678;SDS011;51094;53.864;27.676;2023-06-22T13:22:49;3.20;;;3.20;;
64678;SDS011;51094;53.864;27.676;2023-06-22T13:25:16;3.10;;;3.10;;
64678;SDS011;51094;53.864;27.676;2023-06-22T13:27:45;3.30;;;3.20;;
64678;SDS011;51094;53.864;27.676;2023-06-22T13:30:12;3.25;;;3.25;;
64678;SDS011;51094;53.864;27.676;2023-06-22T13:32:42;3.10;;;3.10;;
64678;SDS011;51094;53.864;27.676;2023-06-22T13:35:10;3.00;;;3.00;;
64678;SDS011;51094;53.864;27.676;2023-06-22T13:37:37;3.20;;;3.20;;
64678;SDS011;51094;53.864;27.676;2023-06-22T13:40:05;2.92;;;2.92;;
64678;SDS011;51094;53.864;27.676;2023-06-22T13:42:33;2.78;;;2.78;;
64678;SDS011;51094;53.864;27.676;2023-06-22T13:45:00;3.10;;;3.10;;
64678;SDS011;51094;53.864;27.676;2023-06-22T13:47:29;3.03;;;3.03;;
64678;SDS011;51094;53.864;27.676;2023-06-22T13:49:57;2.67;;;2.67;;
64678;SDS011;51094;53.864;27.676;2023-06-22T13:52:24;2.90;;;2.90;;
64678;SDS011;51094;53.864;27.676;2023-06-22T13:54:52;2.80;;;2.80;;
64678;SDS011;51094;53.864;27.676;2023-06-22T13:57:19;2.92;;;2.92;;
64678;SDS011;51094;53.864;27.676;2023-06-22T13:59:46;2.75;;;2.75;;
64678;SDS011;51094;53.864;27.676;2023-06-22T14:02:13;2.92;;;2.92;;
64678;SDS011;51094;53.864;27.676;2023-06-22T14:04:40;2.70;;;2.70;;
64678;SDS011;51094;53.864;27.676;2023-06-22T14:07:07;3.05;;;3.05;;
64678;SDS011;51094;53.864;27.676;2023-06-22T14:09:34;3.10;;;3.10;;
64678;SDS011;51094;53.864;27.676;2023-06-22T14:12:05;4.25;;;4.25;;
64678;SDS011;51094;53.864;27.676;2023-06-22T14:14:33;3.60;;;3.50;;
64678;SDS011;51094;53.864;27.676;2023-06-22T14:17:00;2.85;;;2.85;;
64678;SDS011;51094;53.864;27.676;2023-06-22T14:19:27;2.70;;;2.70;;
64678;SDS011;51094;53.864;27.676;2023-06-22T14:21:54;2.65;;;2.65;;
64678;SDS011;51094;53.864;27.676;2023-06-22T14:24:20;2.72;;;2.72;;
64678;SDS011;51094;53.864;27.676;2023-06-22T14:26:51;2.70;;;2.70;;
64678;SDS011;51094;53.864;27.676;2023-06-22T14:29:17;2.45;;;2.45;;
64678;SDS011;51094;53.864;27.676;2023-06-22T14:31:44;2.17;;;2.17;;
64678;SDS011;51094;53.864;27.676;2023-06-22T14:34:12;2.28;;;2.28;;
64678;SDS011;51094;53.864;27.676;2023-06-22T14:36:40;2.47;;;2.47;;
64678;SDS011;51094;53.864;27.676;2023-06-22T14:39:07;2.20;;;2.20;;
64678;SDS011;51094;53.864;27.676;2023-06-22T14:41:34;2.40;;;2.40;;
64678;SDS011;51094;53.864;27.676;2023-06-22T14:44:01;2.28;;;2.28;;
64678;SDS011;51094;53.864;27.676;2023-06-22T14:46:28;2.88;;;2.88;;
64678;SDS011;51094;53.864;27.676;2023-06-22T14:48:55;2.67;;;2.67;;
64678;SDS011;51094;53.864;27.676;2023-06-22T14:51:21;2.20;;;2.20;;
64678;SDS011;51094;53.864;27.676;2023-06-22T14:53:48;2.45;;;2.45;;
64678;SDS011;51094;53.864;27.676;2023-06-22T14:56:15;2.45;;;2.45;;
64678;SDS011;51094;53.864;27.676;2023-06-22T14:58:42;2.33;;;2.33;;